Time;durP1;ratioP1;P1;durP2;ratioP2;P2;SDS_P1;SDS_P2;PMS_P1;PMS_P2;Temp;Humidity;BMP_temperature;BMP_pressure;BME280_temperature;BME280_humidity;BME280_pressure;Samples;Min_cycle;Max_cycle;Signal;HPM_P1;HPM_P2
2022/11/15 00:02:08;;;;;;;25.67;17.40;;;7.10;99.90;8.70;96988.00;;;;5041759;28;20223;-67
2022/11/15 00:04:57;;;;;;;25.67;16.40;;;7.20;99.90;8.50;96986.00;;;;5050464;28;20255;-68
2022/11/15 00:07:47;;;;;;;25.40;18.10;;;7.20;99.90;8.40;96996.00;;;;5052509;28;20250;-68
2022/11/15 00:10:42;;;;;;;26.73;16.03;;;7.20;99.90;8.20;96989.00;;;;5047005;28;20215;-67
2022/11/15 00:13:31;;;;;;;24.67;15.70;;;7.10;99.90;7.80;96983.00;;;;5044560;28;20225;-68
2022/11/15 00:16:20;;;;;;;23.90;14.57;;;7.00;99.90;7.80;96979.00;;;;5050948;28;20228;-68
2022/11/15 00:19:09;;;;;;;22.30;15.80;;;6.90;99.90;7.70;96976.00;;;;5052362;28;20630;-68
2022/11/15 00:21:57;;;;;;;19.20;14.73;;;6.80;99.90;7.60;96978.00;;;;5037200;28;20233;-69
2022/11/15 00:24:48;;;;;;;23.83;14.97;;;6.70;99.90;7.90;96976.00;;;;5050650;28;20266;-68
2022/11/15 00:27:36;;;;;;;22.57;15.57;;;6.70;99.90;7.90;96983.00;;;;5042610;28;20194;-69
2022/11/15 00:30:26;;;;;;;26.20;16.43;;;6.70;99.90;8.20;96986.00;;;;5040926;28;20209;-67
2022/11/15 00:33:14;;;;;;;22.83;16.50;;;6.80;99.90;8.40;96987.00;;;;5051991;28;20227;-68
2022/11/15 00:36:05;;;;;;;22.83;15.70;;;6.90;99.90;8.40;96989.00;;;;5040496;28;20220;-68
2022/11/15 00:38:54;;;;;;;26.73;17.77;;;6.90;99.90;8.50;96989.00;;;;5051880;28;20204;-68
2022/11/15 00:41:44;;;;;;;25.87;17.17;;;7.00;99.90;8.70;96984.00;;;;5052763;28;20228;-68
2022/11/15 00:44:32;;;;;;;27.17;15.53;;;7.00;99.90;8.70;96987.00;;;;5048244;28;20300;-68
2022/11/15 00:47:21;;;;;;;25.87;16.03;;;7.10;99.90;8.80;96976.00;;;;5050262;28;21000;-69
2022/11/15 00:50:10;;;;;;;27.87;15.63;;;7.20;99.90;8.90;96971.00;;;;5041912;28;20211;-68
2022/11/15 00:53:01;;;;;;;19.20;15.00;;;7.20;99.90;8.90;96957.00;;;;5052810;28;20585;-68
2022/11/15 00:55:50;;;;;;;20.37;15.23;;;7.30;99.90;8.90;96967.00;;;;5052672;28;20643;-68
2022/11/15 00:58:40;;;;;;;23.27;15.90;;;7.40;99.90;8.70;96966.00;;;;5051641;28;20703;-68
2022/11/15 01:01:29;;;;;;;21.50;14.83;;;7.40;99.90;8.70;96966.00;;;;5051299;28;20294;-68
2022/11/15 01:04:18;;;;;;;22.43;15.40;;;7.40;99.90;8.90;96957.00;;;;5050055;28;20228;-68
2022/11/15 01:07:06;;;;;;;26.20;14.20;;;7.40;99.90;8.90;96959.00;;;;5040518;28;20210;-68
2022/11/15 01:09:55;;;;;;;16.97;12.87;;;7.40;99.90;8.70;96952.00;;;;5049396;28;20220;-68
2022/11/15 01:12:44;;;;;;;28.23;14.13;;;7.40;99.90;8.60;96953.00;;;;5050769;28;20633;-67
2022/11/15 01:15:34;;;;;;;24.57;15.47;;;7.40;99.90;8.50;96946.00;;;;5051589;28;20789;-67
2022/11/15 01:18:23;;;;;;;21.30;13.43;;;7.30;99.90;8.50;96948.00;;;;5039505;28;20209;-68
2022/11/15 01:21:14;;;;;;;27.60;15.27;;;7.30;99.90;8.60;96950.00;;;;5043369;28;20217;-68
2022/11/15 01:24:03;;;;;;;22.27;15.47;;;7.30;99.90;8.60;96945.00;;;;5049927;28;20204;-68
2022/11/15 01:26:51;;;;;;;23.30;16.30;;;7.30;99.90;8.50;96940.00;;;;5049614;28;20219;-68
2022/11/15 01:29:40;;;;;;;22.00;15.60;;;7.30;99.90;8.40;96930.00;;;;5037474;28;20208;-68
2022/11/15 01:32:30;;;;;;;18.33;13.10;;;7.30;99.90;8.30;96928.00;;;;5038294;28;20220;-68
2022/11/15 01:35:19;;;;;;;22.03;15.63;;;7.20;99.90;8.30;96936.00;;;;5043382;28;20658;-68
2022/11/15 01:38:08;;;;;;;24.10;16.20;;;7.20;99.90;8.60;96931.00;;;;5051058;28;20255;-68
2022/11/15 01:40:57;;;;;;;21.97;13.33;;;7.20;99.90;8.60;96927.00;;;;5051219;28;20228;-67
2022/11/15 01:43:48;;;;;;;22.73;14.43;;;7.20;99.90;8.40;96919.00;;;;5049188;28;20259;-68
2022/11/15 01:46:38;;;;;;;19.93;12.63;;;7.20;99.90;8.20;96935.00;;;;5036389;28;20628;-68
2022/11/15 01:49:31;;;;;;;19.67;14.47;;;7.10;99.90;8.20;96939.00;;;;5049493;28;20200;-67
2022/11/15 01:52:23;;;;;;;18.33;14.57;;;7.10;99.90;8.40;96925.00;;;;5037615;28;20753;-67
2022/11/15 01:55:15;;;;;;;23.70;15.93;;;7.10;99.90;8.20;96927.00;;;;5051194;28;20236;-67
2022/11/15 01:58:06;;;;;;;19.57;14.17;;;7.10;99.90;8.40;96931.00;;;;5051030;28;20212;-68
2022/11/15 02:00:55;;;;;;;20.13;12.87;;;7.10;99.90;8.50;96927.00;;;;5045207;28;20713;-68
2022/11/15 02:03:49;;;;;;;22.70;15.13;;;7.10;99.90;8.60;96927.00;;;;5045092;28;20211;-67
2022/11/15 02:06:40;;;;;;;19.37;13.97;;;7.10;99.90;8.40;96915.00;;;;5050959;28;20254;-68
2022/11/15 02:09:30;;;;;;;16.93;13.40;;;7.10;99.90;8.60;96921.00;;;;5050357;28;20258;-68
2022/11/15 02:12:21;;;;;;;27.90;15.07;;;7.10;99.90;8.60;96919.00;;;;5049126;28;20208;-68
2022/11/15 02:15:12;;;;;;;20.63;14.23;;;7.20;99.90;8.40;96918.00;;;;5039083;28;20271;-67
2022/11/15 02:18:13;;;;;;;22.97;16.07;;;7.20;99.90;8.30;96908.00;;;;5041310;28;20553;-67
2022/11/15 02:21:19;;;;;;;23.87;14.80;;;7.10;99.90;8.50;96909.00;;;;5047619;28;20247;-67
2022/11/15 02:24:49;;;;;;;23.57;15.50;;;7.10;99.90;8.60;96911.00;;;;5050947;28;20259;-67
2022/11/15 02:28:37;;;;;;;23.50;14.30;;;7.10;99.90;8.60;96901.00;;;;5049054;28;20875;-68
2022/11/15 02:31:33;;;;;;;21.20;13.07;;;7.10;99.90;8.30;96906.00;;;;5013267;28;20208;-67
2022/11/15 02:34:30;;;;;;;18.87;12.67;;;7.10;99.90;8.10;96900.00;;;;5044992;28;20259;-68
2022/11/15 02:37:36;;;;;;;20.83;12.73;;;7.00;99.90;7.90;96900.00;;;;5050208;28;20688;-67
2022/11/15 02:40:35;;;;;;;22.57;13.47;;;7.00;99.90;8.20;96881.00;;;;5049873;28;20564;-67
2022/11/15 02:49:55;;;;;;;21.47;12.67;;;6.80;99.90;8.10;96895.00;;;;5038388;28;20224;-67
2022/11/15 02:52:47;;;;;;;23.23;12.97;;;6.80;99.90;8.00;96896.00;;;;5049337;28;20663;-67
2022/11/15 02:55:38;;;;;;;21.43;12.90;;;6.80;99.90;8.00;96887.00;;;;5049341;28;20300;-68
2022/11/15 02:59:15;;;;;;;20.87;15.20;;;8.50;99.90;8.10;96887.00;;;;5046425;28;20213;-67
2022/11/15 03:02:21;;;;;;;17.87;13.43;;;6.80;99.90;8.00;96889.00;;;;5038316;28;20287;-68
2022/11/15 03:05:20;;;;;;;20.63;12.90;;;6.70;99.90;7.60;96884.00;;;;5048919;28;20747;-68
2022/11/15 03:08:19;;;;;;;21.70;13.80;;;6.70;99.90;7.60;96886.00;;;;5049889;28;20205;-67
2022/11/15 03:11:12;;;;;;;17.33;11.93;;;6.60;99.90;7.60;96880.00;;;;5050190;28;20708;-68
2022/11/15 03:14:09;;;;;;;19.50;13.77;;;6.60;99.90;7.70;96876.00;;;;5049737;28;20199;-68
2022/11/15 03:17:08;;;;;;;21.70;14.97;;;6.60;99.90;7.80;96869.00;;;;5050214;28;20259;-68
2022/11/15 03:20:00;;;;;;;22.13;13.67;;;6.60;99.90;7.90;96866.00;;;;5049834;28;20197;-67
2022/11/15 03:22:50;;;;;;;20.37;13.63;;;6.60;99.90;8.10;96864.00;;;;5049294;28;20365;-67
2022/11/15 03:25:43;;;;;;;22.83;13.97;;;6.70;99.90;8.10;96863.00;;;;5050158;28;20253;-68
2022/11/15 03:28:38;;;;;;;18.47;13.13;;;6.70;99.90;7.80;96853.00;;;;5053303;28;20553;-68
2022/11/15 03:34:44;;;;;;;15.67;11.93;;;6.60;99.90;7.30;96858.00;;;;5042157;28;20231;-68
2022/11/15 03:37:39;;;;;;;19.27;13.77;;;6.50;99.90;7.40;96862.00;;;;5049154;28;20201;-67
2022/11/15 03:40:38;;;;;;;19.77;12.80;;;6.50;99.90;7.60;96856.00;;;;5048880;28;20579;-67
2022/11/15 03:43:35;;;;;;;19.83;14.03;;;6.40;99.90;7.80;96867.00;;;;5052126;28;20216;-67
2022/11/15 03:46:29;;;;;;;20.07;13.67;;;6.50;99.90;8.00;96852.00;;;;5036961;28;20220;-67
2022/11/15 03:49:25;;;;;;;17.43;13.03;;;6.50;99.90;7.60;96849.00;;;;5042349;28;20273;-67
2022/11/15 03:52:19;;;;;;;18.10;11.90;;;6.50;99.90;7.50;96838.00;;;;5051345;28;20250;-68
2022/11/15 03:55:11;;;;;;;22.60;12.77;;;6.50;99.90;7.20;96829.00;;;;5050610;28;20274;-67
2022/11/15 03:58:01;;;;;;;16.23;11.30;;;6.40;99.90;7.00;96838.00;;;;5052996;28;20213;-68
2022/11/15 04:00:50;;;;;;;15.77;10.40;;;6.20;99.90;6.60;96833.00;;;;5053553;28;20192;-71
2022/11/15 04:03:39;;;;;;;21.30;15.10;;;6.10;99.90;6.70;96837.00;;;;5053138;28;20232;-67
2022/11/15 04:06:28;;;;;;;20.13;12.77;;;6.00;99.90;7.10;96831.00;;;;5052976;28;20201;-68
2022/11/15 04:09:18;;;;;;;18.83;13.30;;;6.00;99.90;7.30;96835.00;;;;5052686;28;20204;-68
2022/11/15 04:12:06;;;;;;;16.93;11.97;;;6.10;99.90;6.90;96842.00;;;;5051811;28;20263;-68
2022/11/15 04:15:07;;;;;;;17.27;12.47;;;6.00;99.90;7.00;96843.00;;;;5053738;28;20766;-67
2022/11/15 04:17:58;;;;;;;23.17;15.13;;;6.00;99.90;7.30;96841.00;;;;5052686;28;20231;-67
2022/11/15 04:27:01;;;;;;;19.23;13.33;;;6.30;99.90;7.70;96839.00;;;;5049344;28;20212;-67
2022/11/15 04:29:50;;;;;;;21.10;13.83;;;6.30;99.90;7.60;96827.00;;;;5041206;28;20676;-67
2022/11/15 04:32:38;;;;;;;19.27;12.33;;;6.40;99.90;7.60;96832.00;;;;5038210;28;20244;-67
2022/11/15 04:35:27;;;;;;;19.10;13.90;;;6.50;99.90;7.60;96813.00;;;;5041766;28;20245;-68
2022/11/15 04:38:16;;;;;;;16.77;12.13;;;6.40;99.90;7.50;96803.00;;;;5045940;28;20575;-67
2022/11/15 04:41:05;;;;;;;14.40;10.80;;;6.40;99.90;7.20;96812.00;;;;5045905;28;20582;-67
2022/11/15 04:43:55;;;;;;;17.07;12.80;;;6.30;99.90;7.00;96800.00;;;;5047081;28;20295;-68
2022/11/15 04:46:44;;;;;;;12.33;10.17;;;6.20;99.90;7.00;96803.00;;;;5038576;28;20197;-67
2022/11/15 04:49:33;;;;;;;20.07;11.80;;;6.10;99.90;7.10;96797.00;;;;5043523;28;20570;-67
2022/11/15 04:52:22;;;;;;;15.37;10.30;;;6.10;99.90;7.10;96796.00;;;;5039662;28;20213;-67
2022/11/15 04:55:11;;;;;;;16.37;12.10;;;6.10;99.90;7.10;96784.00;;;;5048714;28;20224;-68
2022/11/15 04:58:01;;;;;;;20.80;12.23;;;6.10;99.90;7.10;96787.00;;;;5051213;28;20211;-66
2022/11/15 05:00:51;;;;;;;20.93;12.90;;;6.10;99.90;7.20;96787.00;;;;5040805;28;20204;-67
2022/11/15 05:06:46;;;;;;;20.70;12.40;;;6.10;99.90;7.30;96778.00;;;;5042478;28;20208;-67
2022/11/15 05:09:35;;;;;;;23.10;14.60;;;6.20;99.90;7.30;96776.00;;;;5043855;28;20577;-67
2022/11/15 05:12:23;;;;;;;21.40;13.07;;;6.20;99.90;7.30;96781.00;;;;5039853;28;20218;-68
2022/11/15 05:15:12;;;;;;;22.93;13.17;;;6.20;99.90;7.40;96784.00;;;;5046545;28;20544;-67
2022/11/15 05:18:02;;;;;;;25.33;13.50;;;6.30;99.90;7.10;96778.00;;;;5036706;28;20204;-67
2022/11/15 05:20:51;;;;;;;17.07;11.73;;;6.30;99.90;7.00;96774.00;;;;5042705;28;20256;-67
2022/11/15 05:23:40;;;;;;;18.83;12.77;;;6.20;99.90;7.10;96760.00;;;;5039166;28;20287;-67
2022/11/15 05:26:29;;;;;;;17.77;12.50;;;6.20;99.90;7.20;96768.00;;;;5042254;28;20212;-66
2022/11/15 05:29:18;;;;;;;22.93;13.10;;;6.20;99.90;7.30;96766.00;;;;5050978;28;20204;-67
2022/11/15 05:32:08;;;;;;;15.17;11.33;;;6.20;99.90;6.60;96755.00;;;;5050768;28;20217;-68
2022/11/15 05:34:58;;;;;;;15.60;11.47;;;6.10;99.90;6.70;96766.00;;;;5048613;28;20643;-68
2022/11/15 05:37:46;;;;;;;17.23;11.63;;;6.00;99.90;6.80;96753.00;;;;5050429;28;20271;-68
2022/11/15 05:40:36;;;;;;;17.43;11.37;;;5.90;99.90;6.90;96756.00;;;;5038443;28;20201;-67
2022/11/15 05:43:25;;;;;;;18.60;11.70;;;5.90;99.90;6.90;96751.00;;;;5039056;28;20371;-68
2022/11/15 05:46:15;;;;;;;18.13;11.83;;;5.90;99.90;6.80;96764.00;;;;5039743;28;20217;-67
2022/11/15 05:49:06;;;;;;;16.10;12.80;;;5.90;99.90;6.60;96758.00;;;;5037922;28;20200;-67
2022/11/15 05:51:57;;;;;;;21.27;13.00;;;5.80;99.90;7.00;96756.00;;;;5045171;28;20201;-67
2022/11/15 05:54:46;;;;;;;18.73;11.93;;;5.80;99.90;7.00;96754.00;;;;5043566;28;20228;-67
2022/11/15 05:57:35;;;;;;;25.10;13.43;;;5.90;99.90;6.90;96756.00;;;;5044476;28;20222;-69
2022/11/15 06:00:24;;;;;;;16.50;12.50;;;5.80;99.90;6.70;96751.00;;;;5036362;28;20575;-67
2022/11/15 06:03:13;;;;;;;16.83;10.67;;;5.80;99.90;6.60;96766.00;;;;5041922;28;20224;-67
2022/11/15 06:06:02;;;;;;;19.13;12.97;;;5.70;99.90;6.60;96765.00;;;;5038269;28;20228;-67
2022/11/15 06:08:52;;;;;;;21.10;11.47;;;5.70;99.90;6.60;96760.00;;;;5045562;28;20581;-68
2022/11/15 06:11:41;;;;;;;18.63;11.93;;;5.70;99.90;6.90;96764.00;;;;5035944;28;20198;-68
2022/11/15 06:14:30;;;;;;;17.10;11.80;;;5.70;99.90;7.10;96766.00;;;;5036731;28;20231;-67
2022/11/15 06:17:18;;;;;;;22.23;14.33;;;5.70;99.90;7.20;96767.00;;;;5038886;28;20193;-69
2022/11/15 06:20:08;;;;;;;16.40;12.23;;;5.80;99.90;7.20;96773.00;;;;5045268;28;20201;-70
2022/11/15 06:23:01;;;;;;;16.77;11.80;;;5.80;99.90;7.00;96768.00;;;;5045741;28;20699;-69
2022/11/15 06:25:52;;;;;;;17.43;11.03;;;5.90;99.90;6.80;96782.00;;;;5040625;28;20854;-69
2022/11/15 06:28:40;;;;;;;19.03;13.30;;;5.90;99.90;7.00;96782.00;;;;5037842;28;20323;-67
2022/11/15 06:31:29;;;;;;;16.37;11.67;;;5.80;99.90;7.10;96780.00;;;;5039234;28;20813;-69
2022/11/15 06:34:18;;;;;;;17.37;12.17;;;5.90;99.90;7.10;96780.00;;;;5047882;28;20201;-69
2022/11/15 06:37:06;;;;;;;16.23;11.10;;;5.90;99.90;7.10;96774.00;;;;5042207;28;20261;-69
2022/11/15 06:39:56;;;;;;;19.57;11.03;;;5.90;99.90;7.10;96773.00;;;;5037570;28;20209;-69
2022/11/15 06:42:46;;;;;;;14.77;11.73;;;5.90;99.90;7.00;96778.00;;;;5042297;28;20275;-69
2022/11/15 06:45:35;;;;;;;14.77;11.27;;;5.90;99.90;7.00;96783.00;;;;5041075;28;20229;-68
2022/11/15 06:48:24;;;;;;;18.00;12.03;;;6.00;99.90;7.10;96778.00;;;;5038265;28;20205;-69
2022/11/15 06:51:12;;;;;;;16.20;10.67;;;6.00;99.90;7.10;96793.00;;;;5038826;28;20197;-69
2022/11/15 06:54:01;;;;;;;14.83;11.37;;;6.00;99.90;7.10;96793.00;;;;5043008;28;20196;-69
2022/11/15 06:56:50;;;;;;;15.27;11.73;;;6.00;99.90;7.30;96805.00;;;;5048496;28;20696;-69
2022/11/15 06:59:40;;;;;;;16.47;11.23;;;6.10;99.90;7.40;96805.00;;;;5038079;28;20198;-69
2022/11/15 07:02:29;;;;;;;14.10;10.90;;;6.10;99.90;7.50;96807.00;;;;5040361;28;20217;-69
2022/11/15 07:05:17;;;;;;;18.37;10.97;;;6.20;99.90;7.40;96805.00;;;;5045885;28;20221;-69
2022/11/15 07:08:06;;;;;;;16.07;12.23;;;6.10;99.90;7.50;96796.00;;;;5042896;28;20238;-68
2022/11/15 07:10:56;;;;;;;17.07;12.13;;;6.20;99.90;7.60;96801.00;;;;5035308;28;20200;-69
2022/11/15 07:13:44;;;;;;;15.20;10.07;;;6.30;99.90;7.60;96800.00;;;;5044154;28;20194;-68
2022/11/15 07:16:34;;;;;;;18.97;12.07;;;6.30;99.90;7.60;96805.00;;;;5038944;28;20254;-69
2022/11/15 07:19:23;;;;;;;21.37;11.97;;;6.40;99.90;7.70;96808.00;;;;5046517;28;20220;-69
2022/11/15 07:22:12;;;;;;;17.43;12.37;;;6.50;99.90;7.80;96805.00;;;;5034628;28;20762;-69
2022/11/15 07:25:00;;;;;;;17.97;11.70;;;6.50;99.90;7.90;96802.00;;;;5038755;28;20281;-68
2022/11/15 07:27:56;;;;;;;21.43;13.53;;;6.60;99.90;8.10;96802.00;;;;5045293;28;20205;-69
2022/11/15 07:30:45;;;;;;;17.53;13.13;;;6.60;99.90;8.20;96803.00;;;;5038573;28;20579;-68
2022/11/15 07:33:35;;;;;;;21.90;13.87;;;6.70;99.90;8.30;96807.00;;;;5044805;28;20209;-69
2022/11/15 07:36:24;;;;;;;19.77;13.33;;;6.80;99.90;8.40;96802.00;;;;5033046;28;20657;-69
2022/11/15 07:39:13;;;;;;;18.43;12.67;;;6.90;99.90;8.50;96789.00;;;;5032170;28;20702;-69
2022/11/15 07:45:09;;;;;;;19.67;12.63;;;7.10;99.90;8.70;96790.00;;;;5034799;28;20298;-70
2022/11/15 07:47:58;;;;;;;20.80;13.10;;;7.10;99.90;8.70;96784.00;;;;5040671;28;20204;-68
2022/11/15 07:50:48;;;;;;;23.97;15.80;;;7.20;99.90;8.80;96779.00;;;;5037380;28;20209;-69
2022/11/15 07:53:37;;;;;;;21.50;13.83;;;7.30;99.90;9.00;96777.00;;;;5038397;28;20197;-68
2022/11/15 07:56:25;;;;;;;22.97;15.87;;;7.40;99.90;9.00;96774.00;;;;5038240;28;20283;-69
2022/11/15 07:59:14;;;;;;;18.90;13.80;;;7.50;99.90;9.10;96769.00;;;;5041427;28;20197;-69
2022/11/15 08:02:03;;;;;;;22.07;14.73;;;7.60;99.90;9.10;96768.00;;;;5044410;28;20208;-69
2022/11/15 08:04:52;;;;;;;22.60;15.37;;;7.60;99.90;8.90;96768.00;;;;5038726;28;20236;-69
2022/11/15 08:07:42;;;;;;;23.40;14.73;;;7.60;99.90;8.90;96775.00;;;;5035486;28;20264;-69
2022/11/15 08:10:31;;;;;;;22.73;14.10;;;7.70;99.90;8.80;96776.00;;;;5040065;28;20201;-69
2022/11/15 08:13:22;;;;;;;20.60;15.50;;;7.60;99.90;9.00;96772.00;;;;5039223;28;20628;-69
2022/11/15 08:16:11;;;;;;;23.47;16.33;;;7.60;99.90;9.10;96767.00;;;;5044966;28;20252;-69
2022/11/15 08:19:00;;;;;;;27.97;16.37;;;7.70;99.90;9.10;96761.00;;;;5042619;28;20204;-69
2022/11/15 08:21:49;;;;;;;28.77;17.33;;;7.70;99.90;9.20;96761.00;;;;5040393;28;20209;-69
2022/11/15 08:24:39;;;;;;;19.87;14.53;;;7.80;99.90;9.10;96753.00;;;;5041505;28;20271;-69
2022/11/15 08:27:28;;;;;;;29.80;14.70;;;7.80;99.90;9.20;96748.00;;;;5038390;28;20207;-69
2022/11/15 08:30:17;;;;;;;22.03;15.07;;;7.80;99.90;9.40;96748.00;;;;5041995;28;20204;-69
2022/11/15 08:33:06;;;;;;;23.43;15.20;;;7.90;99.90;9.50;96752.00;;;;5040334;28;20254;-69
2022/11/15 08:35:58;;;;;;;27.97;16.33;;;8.00;99.90;9.60;96742.00;;;;5040467;28;20225;-69
2022/11/15 08:38:46;;;;;;;24.50;15.70;;;8.10;99.90;9.70;96732.00;;;;5043682;28;20689;-69
2022/11/15 08:41:38;;;;;;;22.23;15.63;;;8.20;99.90;9.70;96733.00;;;;5037049;28;20201;-69
2022/11/15 08:44:27;;;;;;;23.87;16.23;;;8.20;99.90;9.80;96730.00;;;;5038459;28;20264;-69
2022/11/15 08:47:15;;;;;;;23.90;16.03;;;8.30;99.90;9.60;96723.00;;;;5038041;28;20213;-69
2022/11/15 08:50:05;;;;;;;20.37;15.97;;;8.30;99.90;9.60;96719.00;;;;5047495;28;20230;-69
2022/11/15 08:52:54;;;;;;;24.07;15.27;;;8.30;99.90;9.60;96728.00;;;;5044861;28;20586;-69
2022/11/15 08:55:42;;;;;;;25.00;17.40;;;8.30;99.90;9.50;96723.00;;;;5037652;28;20631;-69
2022/11/15 08:58:32;;;;;;;23.60;15.77;;;8.40;99.90;9.30;96722.00;;;;5043673;28;20286;-69
2022/11/15 09:01:22;;;;;;;23.73;15.63;;;8.30;99.90;9.40;96726.00;;;;5035474;28;20205;-69
2022/11/15 09:04:11;;;;;;;25.63;16.37;;;8.40;99.90;9.70;96725.00;;;;5039314;28;20228;-69
2022/11/15 09:07:00;;;;;;;21.73;14.20;;;8.40;99.90;9.90;96727.00;;;;5040745;28;20968;-69
2022/11/15 09:09:48;;;;;;;25.23;15.10;;;8.50;99.90;10.00;96724.00;;;;5042960;28;20201;-69
2022/11/15 09:12:38;;;;;;;23.23;13.90;;;8.50;99.90;10.50;96720.00;;;;5043462;28;20205;-69
2022/11/15 09:15:28;;;;;;;21.17;15.27;;;8.60;99.90;10.50;96727.00;;;;5048199;28;20232;-69
2022/11/15 09:18:16;;;;;;;20.73;15.00;;;8.80;99.90;10.70;96726.00;;;;5041827;28;20258;-69
2022/11/15 09:21:05;;;;;;;25.07;14.97;;;8.90;99.90;10.90;96729.00;;;;5046014;28;20220;-69
2022/11/15 09:23:54;;;;;;;22.57;14.13;;;9.00;99.90;11.00;96718.00;;;;5043610;28;20252;-69
2022/11/15 09:26:43;;;;;;;20.40;14.13;;;9.10;99.90;10.80;96719.00;;;;5036147;28;20634;-69
2022/11/15 09:29:31;;;;;;;18.13;13.37;;;9.20;99.90;10.80;96724.00;;;;5041847;28;20422;-69
2022/11/15 09:32:22;;;;;;;21.63;13.77;;;9.20;99.90;10.90;96720.00;;;;5047562;28;20206;-69
2022/11/15 09:35:11;;;;;;;21.43;14.03;;;9.30;99.90;11.10;96724.00;;;;5043382;28;20231;-69
2022/11/15 09:38:00;;;;;;;26.53;15.87;;;9.30;99.90;11.30;96717.00;;;;5038022;28;20220;-69
2022/11/15 09:40:54;;;;;;;27.50;15.10;;;9.40;99.90;11.50;96711.00;;;;5046594;28;20205;-69
2022/11/15 09:44:01;;;;;;;18.93;12.87;;;9.50;99.90;11.60;96708.00;;;;5051440;28;20201;-69
2022/11/15 09:47:04;;;;;;;22.33;15.23;;;9.60;99.90;11.60;96700.00;;;;5036301;28;20193;-69
2022/11/15 09:49:55;;;;;;;19.77;13.37;;;9.80;99.90;11.30;96704.00;;;;5040093;28;20700;-66
2022/11/15 09:52:46;;;;;;;21.50;13.17;;;9.80;99.90;11.30;96698.00;;;;5038449;28;20196;-69
2022/11/15 09:55:45;;;;;;;23.53;14.27;;;9.80;99.90;11.40;96687.00;;;;5030627;28;20217;-68
2022/11/15 09:58:40;;;;;;;19.03;13.47;;;9.80;99.90;11.40;96689.00;;;;5049004;28;20196;-69
2022/11/15 10:01:41;;;;;;;23.27;14.83;;;9.90;99.90;11.90;96684.00;;;;5045814;28;20237;-68
2022/11/15 10:04:30;;;;;;;19.03;12.60;;;9.90;99.90;12.10;96682.00;;;;5039856;28;20266;-69
2022/11/15 10:07:26;;;;;;;19.83;13.47;;;10.10;99.90;12.50;96670.00;;;;5039875;28;20627;-68
2022/11/15 10:10:25;;;;;;;21.07;12.23;;;10.30;99.90;12.60;96663.00;;;;5034600;28;20589;-68
2022/11/15 10:13:19;;;;;;;19.63;12.67;;;10.50;99.90;12.80;96654.00;;;;5037526;28;20706;-68
2022/11/15 10:16:41;;;;;;;17.27;10.57;;;10.60;99.90;13.00;96667.00;;;;5044916;28;20225;-68
2022/11/15 10:19:37;;;;;;;17.63;11.93;;;10.80;99.90;13.10;96655.00;;;;5038087;28;20211;-68
2022/11/15 10:22:31;;;;;;;18.67;12.90;;;11.00;99.90;13.30;96643.00;;;;5044859;28;20562;-68
2022/11/15 10:25:23;;;;;;;19.20;12.17;;;11.20;99.90;13.50;96642.00;;;;5047536;28;20648;-68
2022/11/15 10:28:17;;;;;;;19.57;13.03;;;11.40;99.90;13.10;96629.00;;;;5042637;28;20263;-68
2022/11/15 10:31:23;;;;;;;20.13;12.43;;;11.70;99.90;13.40;96624.00;;;;5042498;28;20208;-68
2022/11/15 10:34:16;;;;;;;18.93;12.20;;;11.80;99.90;13.20;96615.00;;;;5036927;28;20307;-68
2022/11/15 10:37:05;;;;;;;21.87;12.07;;;12.00;99.90;13.60;96616.00;;;;5049486;28;20688;-68
2022/11/15 10:40:06;;;;;;;17.40;12.97;;;12.10;99.90;13.50;96611.00;;;;5049349;28;20212;-68
2022/11/15 10:43:16;;;;;;;19.77;12.27;;;12.30;99.90;14.10;96607.00;;;;5050188;28;20250;-68
2022/11/15 10:46:22;;;;;;;18.57;12.40;;;12.40;99.90;14.40;96602.00;;;;5038762;28;20229;-68
2022/11/15 10:49:32;;;;;;;20.07;12.03;;;12.60;99.90;14.40;96591.00;;;;5046722;28;20736;-66
2022/11/15 10:52:22;;;;;;;16.23;11.20;;;12.80;99.90;14.70;96585.00;;;;5035795;28;20204;-66
2022/11/15 10:55:29;;;;;;;20.20;12.53;;;12.80;99.90;14.70;96584.00;;;;5046669;28;20662;-66
2022/11/15 10:58:31;;;;;;;15.85;12.57;;;12.90;99.90;14.60;96568.00;;;;5048049;28;21281;-68
2022/11/15 11:01:24;;;;;;;17.33;12.07;;;13.00;99.90;15.70;96551.00;;;;5049743;28;20219;-68
2022/11/15 11:04:14;;;;;;;16.83;11.90;;;13.40;99.90;16.00;96551.00;;;;5049859;28;20200;-67
2022/11/15 11:07:02;;;;;;;17.53;11.97;;;13.90;99.90;16.50;96544.00;;;;5050802;28;20262;-67
2022/11/15 11:10:00;;;;;;;16.37;11.63;;;14.40;99.90;15.90;96549.00;;;;5039272;28;20665;-67
2022/11/15 11:12:50;;;;;;;17.83;11.90;;;14.80;99.90;16.60;96547.00;;;;5045031;28;20200;-66
2022/11/15 11:15:39;;;;;;;15.60;10.90;;;15.00;99.90;17.30;96538.00;;;;5048614;28;20294;-67
2022/11/15 11:18:34;;;;;;;13.83;10.63;;;15.30;99.90;17.70;96526.00;;;;5045110;28;20618;-66
2022/11/15 11:21:36;;;;;;;13.73;10.57;;;15.70;99.90;18.40;96524.00;;;;5048413;28;20209;-67
2022/11/15 11:24:37;;;;;;;15.80;9.87;;;16.20;99.90;18.40;96519.00;;;;5049480;28;20729;-67
2022/11/15 11:27:44;;;;;;;12.17;9.30;;;16.60;99.90;16.90;96500.00;;;;5048412;28;20342;-67
2022/11/15 11:30:48;;;;;;;13.67;10.60;;;16.70;99.90;18.30;96503.00;;;;5048756;28;20250;-67
2022/11/15 11:33:47;;;;;;;15.77;10.97;;;16.80;99.90;18.30;96507.00;;;;5031660;28;20282;-67
2022/11/15 11:36:46;;;;;;;17.13;11.10;;;16.90;99.90;18.10;96494.00;;;;5049087;28;20258;-67
2022/11/15 11:39:49;;;;;;;15.83;12.20;;;16.90;99.90;19.10;96491.00;;;;5048146;28;20196;-67
2022/11/15 11:42:47;;;;;;;18.60;13.43;;;17.20;99.90;18.90;96483.00;;;;5049371;28;20192;-67
2022/11/15 11:46:06;;;;;;;18.00;13.10;;;17.40;99.90;19.40;96478.00;;;;5048919;28;20299;-67
2022/11/15 11:49:01;;;;;;;18.17;13.57;;;17.60;99.90;19.60;96486.00;;;;5053821;28;20259;-67
2022/11/15 11:51:57;;;;;;;16.83;12.93;;;17.90;99.90;20.00;96478.00;;;;5047692;28;20204;-67
2022/11/15 11:55:02;;;;;;;18.10;14.43;;;18.00;99.90;20.10;96468.00;;;;5046921;28;20220;-67
2022/11/15 11:58:03;;;;;;;20.90;15.40;;;18.20;99.90;20.40;96466.00;;;;5047720;28;20209;-67
2022/11/15 12:00:57;;;;;;;20.77;15.57;;;18.40;99.90;20.10;96449.00;;;;5047750;28;20200;-67
2022/11/15 12:03:52;;;;;;;23.00;16.70;;;18.50;99.90;20.20;96436.00;;;;5037472;28;20189;-67
2022/11/15 12:06:47;;;;;;;25.60;16.77;;;18.60;99.90;20.30;96436.00;;;;5042968;28;20224;-68
2022/11/15 12:09:43;;;;;;;25.53;18.93;;;18.70;99.90;20.40;96429.00;;;;5042923;28;20196;-68
2022/11/15 12:12:42;;;;;;;29.27;19.30;;;18.80;99.90;20.40;96421.00;;;;5041651;28;20203;-68
2022/11/15 12:15:38;;;;;;;28.80;20.40;;;19.00;99.90;20.50;96414.00;;;;5047089;28;20228;-67
2022/11/15 12:18:30;;;;;;;26.47;18.07;;;19.20;99.90;21.20;96418.00;;;;5048913;28;20204;-67
2022/11/15 12:21:31;;;;;;;27.30;20.47;;;19.40;99.90;21.20;96411.00;;;;5040542;28;20205;-67
2022/11/15 12:24:25;;;;;;;28.37;19.77;;;19.60;99.90;22.00;96404.00;;;;5039644;28;20203;-67
2022/11/15 12:27:21;;;;;;;30.83;20.63;;;19.90;99.10;21.50;96405.00;;;;5041346;28;20225;-67
2022/11/15 12:30:17;;;;;;;28.23;19.40;;;20.00;98.20;21.50;96403.00;;;;5038966;28;20194;-67
2022/11/15 12:33:06;;;;;;;26.93;19.90;;;20.10;97.50;21.30;96401.00;;;;5041579;28;20715;-67
2022/11/15 12:36:02;;;;;;;28.80;20.33;;;20.00;96.90;21.20;96410.00;;;;5050965;28;20294;-67
2022/11/15 12:38:57;;;;;;;31.57;20.33;;;20.00;96.30;19.60;96404.00;;;;5046188;28;20208;-67
2022/11/15 12:42:37;;;;;;;31.90;22.60;;;19.70;95.70;18.20;96430.00;;;;5043144;28;20262;-67
2022/11/15 12:45:29;;;;;;;33.53;21.60;;;18.70;96.30;18.60;96400.00;;;;5038087;28;20232;-67
2022/11/15 12:48:58;;;;;;;31.97;21.70;;;18.00;97.70;18.80;96407.00;;;;5050612;28;20204;-67
2022/11/15 12:52:08;;;;;;;36.13;21.57;;;17.70;99.00;18.70;96390.00;;;;5044998;28;20230;-67
2022/11/15 12:55:32;;;;;;;27.77;19.67;;;17.70;99.20;19.90;96400.00;;;;5040974;28;20719;-67
2022/11/15 12:58:42;;;;;;;37.03;23.90;;;17.90;99.60;19.50;96436.00;;;;5042989;28;20216;-67
2022/11/15 13:02:01;;;;;;;31.97;22.33;;;18.10;99.20;18.60;96437.00;;;;5043613;28;20220;-68
2022/11/15 13:04:51;;;;;;;33.50;23.43;;;17.80;99.10;17.50;96430.00;;;;5050003;28;20688;-67
2022/11/15 13:07:59;;;;;;;31.90;21.70;;;17.10;99.30;16.80;96429.00;;;;5035416;28;20302;-67